createdAt,value
2023-02-24T00:02:05.682Z,14.80
2023-02-24T00:04:40.195Z,15.60
2023-02-24T00:07:11.029Z,15.00
2023-02-24T00:09:40.506Z,15.60
2023-02-24T00:12:13.417Z,16.80
2023-02-24T00:14:45.355Z,13.70
2023-02-24T00:17:17.212Z,14.40
2023-02-24T00:19:46.732Z,14.50
2023-02-24T00:22:15.260Z,14.70
2023-02-24T00:24:43.482Z,13.90
2023-02-24T00:27:12.428Z,15.00
2023-02-24T00:29:42.246Z,13.80
2023-02-24T00:32:13.833Z,14.30
2023-02-24T00:34:43.264Z,14.50
2023-02-24T00:37:12.287Z,14.00
2023-02-24T00:39:41.970Z,13.10
2023-02-24T00:42:12.588Z,12.80
2023-02-24T00:44:46.068Z,13.10
2023-02-24T00:47:17.644Z,12.40
2023-02-24T00:49:46.354Z,11.90
2023-02-24T00:52:19.091Z,13.40
2023-02-24T00:54:52.150Z,12.40
2023-02-24T00:57:21.909Z,12.90
2023-02-24T00:59:54.382Z,12.30
2023-02-24T01:02:22.617Z,14.20
2023-02-24T01:04:52.956Z,13.00
2023-02-24T01:07:21.964Z,13.20
2023-02-24T01:09:51.107Z,12.90
2023-02-24T01:12:22.231Z,13.00
2023-02-24T01:14:52.805Z,13.20
2023-02-24T01:17:22.348Z,12.90
2023-02-24T01:19:50.881Z,12.80
2023-02-24T01:22:21.238Z,12.40
2023-02-24T01:24:50.839Z,13.30
2023-02-24T01:27:19.645Z,13.20
2023-02-24T01:29:49.160Z,11.90
2023-02-24T01:32:22.232Z,11.80
2023-02-24T01:34:53.707Z,11.50
2023-02-24T01:37:24.265Z,12.20
2023-02-24T01:39:52.382Z,12.60
2023-02-24T01:42:22.569Z,11.80
2023-02-24T01:44:52.158Z,12.30
2023-02-24T01:47:22.304Z,11.60
2023-02-24T01:49:54.821Z,11.60
2023-02-24T01:52:43.511Z,11.10
2023-02-24T01:55:29.440Z,11.60
2023-02-24T01:58:01.163Z,10.70
2023-02-24T02:00:37.915Z,11.90
2023-02-24T02:03:30.735Z,11.70
2023-02-24T02:06:10.876Z,11.30
2023-02-24T02:08:42.019Z,11.10
2023-02-24T02:11:20.700Z,10.30
2023-02-24T02:13:53.289Z,11.30
2023-02-24T02:16:51.587Z,11.80
2023-02-24T02:19:41.770Z,10.40
2023-02-24T02:22:26.796Z,11.20
2023-02-24T02:25:28.795Z,11.00
2023-02-24T02:28:17.053Z,11.10
2023-02-24T02:31:13.002Z,10.80
2023-02-24T02:34:00.299Z,10.40
2023-02-24T02:36:52.777Z,10.80
2023-02-24T02:39:30.674Z,11.00
2023-02-24T02:42:05.172Z,10.20
2023-02-24T02:47:35.916Z,9.90
2023-02-24T02:50:18.892Z,11.00
2023-02-24T02:52:57.940Z,10.60
2023-02-24T02:55:33.839Z,10.90
2023-02-24T02:58:09.255Z,11.40
2023-02-24T03:00:51.575Z,10.40
2023-02-24T03:03:21.164Z,10.40
2023-02-24T03:05:57.563Z,10.90
2023-02-24T03:08:31.081Z,9.10
2023-02-24T03:11:02.997Z,9.80
2023-02-24T03:13:36.937Z,10.00
2023-02-24T03:16:06.813Z,10.60
2023-02-24T03:18:45.454Z,10.50
2023-02-24T03:21:24.585Z,10.70
2023-02-24T03:23:53.947Z,10.20
2023-02-24T03:26:52.800Z,9.90
2023-02-24T03:30:01.694Z,9.50
2023-02-24T03:32:44.029Z,9.30
2023-02-24T03:35:38.052Z,9.30
2023-02-24T03:38:10.331Z,10.10
2023-02-24T03:40:39.884Z,9.90
2023-02-24T03:43:17.973Z,10.70
2023-02-24T03:45:46.891Z,9.10
2023-02-24T03:48:16.593Z,10.80
2023-02-24T03:50:46.800Z,10.30
2023-02-24T03:53:59.862Z,10.00
2023-02-24T03:56:40.826Z,9.50
2023-02-24T03:59:18.909Z,10.40
2023-02-24T04:01:51.937Z,9.30
2023-02-24T04:04:38.198Z,10.20
2023-02-24T04:07:26.917Z,9.30
2023-02-24T04:10:10.509Z,9.20
2023-02-24T04:12:39.563Z,9.50
2023-02-24T04:15:21.018Z,9.30
2023-02-24T04:18:07.365Z,9.10
2023-02-24T04:20:40.377Z,9.60
2023-02-24T04:23:16.870Z,8.90
2023-02-24T04:25:49.819Z,9.10
2023-02-24T04:28:23.027Z,10.10
2023-02-24T04:30:57.644Z,9.90
2023-02-24T04:33:26.563Z,10.50
2023-02-24T04:35:55.996Z,9.60
2023-02-24T04:38:25.414Z,9.50
2023-02-24T04:40:55.459Z,10.30
2023-02-24T04:43:23.706Z,10.90
2023-02-24T04:45:52.507Z,10.10
2023-02-24T04:48:20.793Z,10.50
2023-02-24T04:50:55.318Z,11.30
2023-02-24T04:53:27.241Z,11.10
2023-02-24T04:55:56.501Z,10.30
2023-02-24T04:58:29.542Z,9.80
2023-02-24T05:00:57.837Z,10.60
2023-02-24T05:03:30.178Z,9.80
2023-02-24T05:06:00.474Z,10.30
2023-02-24T05:08:30.742Z,10.10
2023-02-24T05:11:01.203Z,10.60
2023-02-24T05:13:32.028Z,9.90
2023-02-24T05:16:08.276Z,10.60
2023-02-24T05:18:38.784Z,11.10
2023-02-24T05:21:32.297Z,10.40
2023-02-24T05:24:11.698Z,10.10
2023-02-24T05:26:41.999Z,9.60
2023-02-24T05:29:12.563Z,10.80
2023-02-24T05:31:42.047Z,10.80
2023-02-24T05:34:16.324Z,11.10
2023-02-24T05:36:59.756Z,10.60
2023-02-24T05:39:30.293Z,11.00
2023-02-24T05:42:05.959Z,11.10
2023-02-24T05:44:35.807Z,11.40
2023-02-24T05:47:05.930Z,10.50
2023-02-24T05:49:35.411Z,11.10
2023-02-24T05:52:09.120Z,11.20
2023-02-24T05:54:42.789Z,10.90
2023-02-24T05:57:17.189Z,10.60
2023-02-24T05:59:46.070Z,9.90
2023-02-24T06:02:16.756Z,10.90
2023-02-24T06:04:54.275Z,9.70
2023-02-24T06:07:34.678Z,10.40
2023-02-24T06:10:07.346Z,11.10
2023-02-24T06:12:40.059Z,10.00
2023-02-24T06:15:08.762Z,10.90
2023-02-24T06:17:39.397Z,10.70
2023-02-24T06:20:15.817Z,11.80
2023-02-24T06:22:44.294Z,11.90
2023-02-24T06:25:12.578Z,12.10
2023-02-24T06:27:41.141Z,12.00
2023-02-24T06:30:10.607Z,11.90
2023-02-24T06:32:39.533Z,12.40
2023-02-24T06:35:08.974Z,11.70
2023-02-24T06:37:37.325Z,11.20
2023-02-24T06:40:15.994Z,12.70
2023-02-24T06:42:54.429Z,12.00
2023-02-24T06:45:24.606Z,12.60
2023-02-24T06:47:52.864Z,12.10
2023-02-24T06:50:22.006Z,12.50
2023-02-24T06:52:50.662Z,13.10
2023-02-24T06:55:28.532Z,13.10
2023-02-24T06:58:04.719Z,13.60
2023-02-24T07:00:41.219Z,14.30
2023-02-24T07:03:15.134Z,14.90
2023-02-24T07:05:50.511Z,15.30
2023-02-24T07:08:21.270Z,15.60
2023-02-24T07:10:56.068Z,14.90
2023-02-24T07:13:30.094Z,14.60
2023-02-24T07:16:07.293Z,15.00
2023-02-24T07:18:40.617Z,16.00
2023-02-24T07:21:12.918Z,16.00
2023-02-24T07:23:42.021Z,15.60
2023-02-24T07:26:13.455Z,16.70
2023-02-24T07:28:44.545Z,16.00
2023-02-24T07:31:17.387Z,16.20
2023-02-24T07:33:46.840Z,16.20
2023-02-24T07:36:23.431Z,16.30
2023-02-24T07:38:53.666Z,17.60
2023-02-24T07:41:23.781Z,17.30
2023-02-24T07:43:55.318Z,17.40
2023-02-24T07:46:28.078Z,17.30
2023-02-24T07:48:59.972Z,16.50
2023-02-24T07:51:29.908Z,15.90
2023-02-24T07:54:00.745Z,16.40
2023-02-24T07:56:31.283Z,16.50
2023-02-24T07:59:09.906Z,15.20
2023-02-24T08:01:42.040Z,15.10
2023-02-24T08:04:16.558Z,16.00
2023-02-24T08:06:48.066Z,16.20
2023-02-24T08:09:19.667Z,15.90
2023-02-24T08:11:53.925Z,15.20
2023-02-24T08:14:32.984Z,15.40
2023-02-24T08:17:05.681Z,15.20
2023-02-24T08:19:39.643Z,14.50
2023-02-24T08:22:19.911Z,13.50
2023-02-24T08:25:06.008Z,13.50
2023-02-24T08:30:09.955Z,13.90
2023-02-24T08:32:45.236Z,13.20
2023-02-24T08:35:16.324Z,14.40
2023-02-24T08:37:47.841Z,12.90
2023-02-24T08:40:34.562Z,12.90
2023-02-24T08:43:17.681Z,13.70
2023-02-24T08:45:52.133Z,13.20
2023-02-24T08:48:31.194Z,12.50
2023-02-24T08:51:04.760Z,13.50
2023-02-24T08:53:33.676Z,13.20
2023-02-24T08:56:12.460Z,13.50
2023-02-24T08:58:49.580Z,12.40
2023-02-24T09:01:24.702Z,13.60
2023-02-24T09:03:58.984Z,15.10
2023-02-24T09:06:43.566Z,14.60
2023-02-24T09:09:18.932Z,15.10
2023-02-24T09:11:49.566Z,15.60
2023-02-24T09:14:28.950Z,16.00
2023-02-24T09:17:03.647Z,16.20
2023-02-24T09:19:40.929Z,15.60
2023-02-24T09:22:30.276Z,16.70
2023-02-24T09:25:21.501Z,17.10
2023-02-24T09:28:09.093Z,17.40
2023-02-24T09:30:51.714Z,18.30
2023-02-24T09:33:23.694Z,18.10
2023-02-24T09:36:10.895Z,18.70
2023-02-24T09:39:03.331Z,18.70
2023-02-24T09:41:59.099Z,19.10
2023-02-24T09:44:37.836Z,18.00
2023-02-24T09:47:40.012Z,18.70
2023-02-24T09:50:14.703Z,20.20
2023-02-24T09:52:43.288Z,19.90
2023-02-24T09:55:46.242Z,20.00
2023-02-24T09:58:43.711Z,21.00
2023-02-24T10:01:43.018Z,22.40
2023-02-24T10:04:53.993Z,20.40
2023-02-24T10:07:38.662Z,21.30
2023-02-24T10:10:30.521Z,21.70
2023-02-24T10:13:14.050Z,20.20
2023-02-24T10:15:58.372Z,21.30
2023-02-24T10:18:28.750Z,21.40
2023-02-24T10:21:15.754Z,21.60
2023-02-24T10:24:02.525Z,20.50
2023-02-24T10:26:59.639Z,21.10
2023-02-24T10:29:32.653Z,20.80
2023-02-24T10:32:24.339Z,23.60
2023-02-24T10:34:53.538Z,21.70
2023-02-24T10:37:29.210Z,22.30
2023-02-24T10:40:01.164Z,21.00
2023-02-24T10:42:33.665Z,20.70
2023-02-24T10:45:17.334Z,22.10
2023-02-24T10:47:58.046Z,21.00
2023-02-24T10:50:34.793Z,21.00
2023-02-24T10:53:34.136Z,20.90
2023-02-24T10:56:26.647Z,21.90
2023-02-24T10:59:25.576Z,20.40
2023-02-24T11:02:06.826Z,20.50
2023-02-24T11:04:58.065Z,20.40
2023-02-24T11:07:33.745Z,21.60
2023-02-24T11:10:26.280Z,21.30
2023-02-24T11:13:15.820Z,21.40
2023-02-24T11:16:12.273Z,22.30
2023-02-24T11:21:17.629Z,19.90
2023-02-24T11:23:56.943Z,23.10
2023-02-24T11:26:45.558Z,22.30
2023-02-24T11:29:45.963Z,20.80
2023-02-24T11:32:39.782Z,20.70
2023-02-24T11:35:22.961Z,22.40
2023-02-24T11:38:16.196Z,20.00
2023-02-24T11:40:49.353Z,21.60
2023-02-24T11:43:27.031Z,21.30
2023-02-24T11:46:02.309Z,20.30
2023-02-24T11:48:36.325Z,20.20
2023-02-24T11:51:16.721Z,20.50
2023-02-24T11:53:53.999Z,20.30
2023-02-24T11:56:22.999Z,21.30
2023-02-24T11:59:11.361Z,20.40
2023-02-24T12:01:48.417Z,20.40
2023-02-24T12:04:32.701Z,20.00
2023-02-24T12:07:23.521Z,20.10
2023-02-24T12:10:16.158Z,19.90
2023-02-24T12:12:57.113Z,19.70
2023-02-24T12:15:55.485Z,19.90
2023-02-24T12:18:30.987Z,19.10
2023-02-24T12:23:40.072Z,19.20
2023-02-24T12:26:28.929Z,20.30
2023-02-24T12:29:18.864Z,20.90
2023-02-24T12:32:30.536Z,21.50
2023-02-24T12:35:07.479Z,20.60
2023-02-24T12:37:59.390Z,20.10
2023-02-24T12:40:53.368Z,20.50
2023-02-24T12:43:50.226Z,22.00
2023-02-24T12:46:31.389Z,22.40
2023-02-24T12:49:19.642Z,22.20
2023-02-24T12:52:08.006Z,21.00
2023-02-24T12:54:46.436Z,21.50
2023-02-24T12:57:25.579Z,21.10
2023-02-24T12:59:57.044Z,21.10
2023-02-24T13:02:55.983Z,22.30
2023-02-24T13:05:51.897Z,20.80
2023-02-24T13:08:39.833Z,22.40
2023-02-24T13:11:16.648Z,22.10
2023-02-24T13:13:56.711Z,21.70
2023-02-24T13:16:34.727Z,21.10
2023-02-24T13:19:17.794Z,21.90
2023-02-24T13:22:17.128Z,20.50
2023-02-24T13:24:55.133Z,20.60
2023-02-24T13:27:25.623Z,20.30
2023-02-24T13:30:01.086Z,21.10
2023-02-24T13:32:42.710Z,19.90
2023-02-24T13:35:14.488Z,20.50
2023-02-24T13:37:46.180Z,19.00
2023-02-24T13:40:17.830Z,20.70
2023-02-24T13:43:00.852Z,21.10
2023-02-24T13:45:35.266Z,21.20
2023-02-24T13:48:30.170Z,22.50
2023-02-24T13:51:37.519Z,20.70
2023-02-24T13:54:36.286Z,21.00
2023-02-24T13:57:40.141Z,20.90
2023-02-24T14:00:22.835Z,21.00
2023-02-24T14:02:53.256Z,23.40
2023-02-24T14:05:36.039Z,20.50
2023-02-24T14:08:05.309Z,22.20
2023-02-24T14:10:37.014Z,21.20
2023-02-24T14:13:16.859Z,20.50
2023-02-24T14:15:47.757Z,21.40
2023-02-24T14:18:25.892Z,22.40
2023-02-24T14:20:56.501Z,19.60
2023-02-24T14:23:27.480Z,20.50
2023-02-24T14:26:00.537Z,20.00
2023-02-24T14:28:38.326Z,19.60
2023-02-24T14:31:12.782Z,20.60
2023-02-24T14:33:42.996Z,20.40
2023-02-24T14:36:21.898Z,19.20
2023-02-24T14:39:19.970Z,20.20
2023-02-24T14:41:50.685Z,19.90
2023-02-24T14:44:24.469Z,19.70
2023-02-24T14:47:00.243Z,18.90
2023-02-24T14:52:07.546Z,17.80
2023-02-24T14:54:48.893Z,18.60
2023-02-24T14:57:25.486Z,18.50
2023-02-24T15:00:00.122Z,18.00
2023-02-24T15:02:33.727Z,17.80
2023-02-24T15:05:02.052Z,16.80
2023-02-24T15:07:33.772Z,17.70
2023-02-24T15:10:04.734Z,17.60
2023-02-24T15:12:46.567Z,17.40
2023-02-24T15:15:24.171Z,17.10
2023-02-24T15:18:12.402Z,15.70
2023-02-24T15:20:42.596Z,16.80
2023-02-24T15:23:27.632Z,17.30
2023-02-24T15:25:56.108Z,16.70
2023-02-24T15:28:31.703Z,16.40
2023-02-24T15:31:05.264Z,15.10
2023-02-24T15:33:40.929Z,16.50
2023-02-24T15:36:19.887Z,16.10
2023-02-24T15:38:53.046Z,16.40
2023-02-24T15:41:21.678Z,16.00
2023-02-24T15:43:56.232Z,16.30
2023-02-24T15:46:30.003Z,16.60
2023-02-24T15:49:03.153Z,15.10
2023-02-24T15:51:41.713Z,15.60
2023-02-24T15:54:36.373Z,16.10
2023-02-24T15:57:05.981Z,16.40
2023-02-24T15:59:34.922Z,16.90
2023-02-24T16:02:05.311Z,16.70
2023-02-24T16:04:34.573Z,16.90
2023-02-24T16:07:04.188Z,16.50
2023-02-24T16:09:37.297Z,16.00
2023-02-24T16:12:18.544Z,15.10
2023-02-24T16:14:56.022Z,15.50
2023-02-24T16:17:35.173Z,16.90
2023-02-24T16:20:08.641Z,17.80
2023-02-24T16:22:37.490Z,16.80
2023-02-24T16:25:06.622Z,17.10
2023-02-24T16:27:35.893Z,15.70
2023-02-24T16:30:04.381Z,16.40
2023-02-24T16:32:33.242Z,15.80
2023-02-24T16:35:02.698Z,17.10
2023-02-24T16:37:30.869Z,16.40
2023-02-24T16:39:59.668Z,16.10
2023-02-24T16:42:28.097Z,18.00
2023-02-24T16:44:57.654Z,17.10
2023-02-24T16:47:26.537Z,17.70
2023-02-24T16:49:58.489Z,19.30
2023-02-24T16:52:28.710Z,17.80
2023-02-24T16:54:56.946Z,17.10
2023-02-24T16:57:25.942Z,17.90
2023-02-24T16:59:54.679Z,18.20
2023-02-24T17:02:26.019Z,16.80
2023-02-24T17:04:54.385Z,18.60
2023-02-24T17:07:22.754Z,18.50
2023-02-24T17:09:51.077Z,18.50
2023-02-24T17:12:22.218Z,19.40
2023-02-24T17:14:50.775Z,18.60
2023-02-24T17:17:21.575Z,18.70
2023-02-24T17:19:49.824Z,17.50
2023-02-24T17:22:18.568Z,17.60
2023-02-24T17:24:46.725Z,18.00
2023-02-24T17:27:14.992Z,17.90
2023-02-24T17:29:43.505Z,17.50
2023-02-24T17:32:12.391Z,16.80
2023-02-24T17:34:41.552Z,16.40
2023-02-24T17:37:10.712Z,16.20
2023-02-24T17:39:39.281Z,16.80
2023-02-24T17:42:07.529Z,15.50
2023-02-24T17:44:36.223Z,15.60
2023-02-24T17:47:06.596Z,16.60
2023-02-24T17:49:35.604Z,16.40
2023-02-24T17:52:06.265Z,17.10
2023-02-24T17:54:34.688Z,17.40
2023-02-24T17:57:03.098Z,17.60
2023-02-24T17:59:31.657Z,17.00
2023-02-24T18:02:02.210Z,18.30
2023-02-24T18:04:32.060Z,18.10
2023-02-24T18:07:01.218Z,18.90
2023-02-24T18:09:29.927Z,18.30
2023-02-24T18:11:58.447Z,17.20
2023-02-24T18:14:26.635Z,17.50
2023-02-24T18:16:55.479Z,18.30
2023-02-24T18:19:24.169Z,18.60
2023-02-24T18:21:53.731Z,17.40
2023-02-24T18:24:22.986Z,18.30
2023-02-24T18:26:51.328Z,17.20
2023-02-24T18:29:19.758Z,15.70
2023-02-24T18:31:51.297Z,16.10
2023-02-24T18:34:20.024Z,16.00
2023-02-24T18:36:48.614Z,16.10
2023-02-24T18:39:18.274Z,15.30
2023-02-24T18:41:46.548Z,14.60
2023-02-24T18:44:14.743Z,14.70
2023-02-24T18:46:42.974Z,15.70
2023-02-24T18:49:12.853Z,13.90
2023-02-24T18:51:42.544Z,14.30
2023-02-24T18:54:11.747Z,13.40
2023-02-24T18:56:40.819Z,14.20
2023-02-24T18:59:09.336Z,13.60
2023-02-24T19:01:39.318Z,12.90
2023-02-24T19:04:08.802Z,12.30
2023-02-24T19:06:38.700Z,13.00
2023-02-24T19:09:10.911Z,13.00
2023-02-24T19:11:41.617Z,12.70
2023-02-24T19:14:13.590Z,11.90
2023-02-24T19:16:42.731Z,12.30
2023-02-24T19:19:16.677Z,12.80
2023-02-24T19:21:46.261Z,11.90
2023-02-24T19:24:16.548Z,12.50
2023-02-24T19:26:46.059Z,13.40
2023-02-24T19:29:14.658Z,12.80
2023-02-24T19:31:44.170Z,12.40
2023-02-24T19:34:15.356Z,12.60
2023-02-24T19:36:43.877Z,13.00
2023-02-24T19:39:15.379Z,11.90
2023-02-24T19:41:43.839Z,13.00
2023-02-24T19:44:12.772Z,12.20
2023-02-24T19:46:42.217Z,12.00
2023-02-24T19:49:10.570Z,13.50
2023-02-24T19:51:40.304Z,12.70
2023-02-24T19:54:13.905Z,13.50
2023-02-24T19:56:42.162Z,12.80
2023-02-24T19:59:11.411Z,12.00
2023-02-24T20:01:40.530Z,12.80
2023-02-24T20:04:09.547Z,12.40
2023-02-24T20:06:41.182Z,13.40
2023-02-24T20:09:15.715Z,12.80
2023-02-24T20:11:45.792Z,13.70
2023-02-24T20:14:16.926Z,13.20
2023-02-24T20:16:45.488Z,12.40
2023-02-24T20:19:15.283Z,14.10
2023-02-24T20:21:44.234Z,13.20
2023-02-24T20:24:15.586Z,13.60
2023-02-24T20:26:47.354Z,12.60
2023-02-24T20:29:16.976Z,13.00
2023-02-24T20:31:46.776Z,13.10
2023-02-24T20:34:16.779Z,12.60
2023-02-24T20:36:46.206Z,12.50
2023-02-24T20:39:14.574Z,12.30
2023-02-24T20:41:44.214Z,12.20
2023-02-24T20:44:12.939Z,12.10
2023-02-24T20:46:42.524Z,12.10
2023-02-24T20:49:14.948Z,12.40
2023-02-24T20:51:44.094Z,13.20
2023-02-24T20:54:13.865Z,12.50
2023-02-24T20:56:44.307Z,13.40
2023-02-24T20:59:19.610Z,13.60
2023-02-24T21:01:49.139Z,14.70
2023-02-24T21:04:20.461Z,14.10
2023-02-24T21:06:51.534Z,15.00
2023-02-24T21:09:19.872Z,13.90
2023-02-24T21:11:49.122Z,14.20
2023-02-24T21:14:18.285Z,13.80
2023-02-24T21:16:46.773Z,14.30
2023-02-24T21:19:15.376Z,14.00
2023-02-24T21:21:44.252Z,13.00
2023-02-24T21:24:12.622Z,13.90
2023-02-24T21:26:40.752Z,14.60
2023-02-24T21:29:09.256Z,14.10
2023-02-24T21:31:38.057Z,15.20
2023-02-24T21:34:06.503Z,14.00
2023-02-24T21:36:35.242Z,14.00
2023-02-24T21:39:06.749Z,14.70
2023-02-24T21:41:37.958Z,14.40
2023-02-24T21:44:06.864Z,13.50
2023-02-24T21:46:35.069Z,13.70
2023-02-24T21:49:03.582Z,13.80
2023-02-24T21:51:31.698Z,14.20
2023-02-24T21:54:01.055Z,13.40
2023-02-24T21:56:30.427Z,13.90
2023-02-24T21:59:01.985Z,13.80
2023-02-24T22:01:33.628Z,14.30
2023-02-24T22:04:06.606Z,13.80
2023-02-24T22:06:36.481Z,14.30
2023-02-24T22:09:07.696Z,13.30
2023-02-24T22:11:38.674Z,12.90
2023-02-24T22:14:09.183Z,13.70
2023-02-24T22:16:39.636Z,13.70
2023-02-24T22:19:07.983Z,14.00
2023-02-24T22:21:36.389Z,13.00
2023-02-24T22:24:05.450Z,13.30
2023-02-24T22:26:34.326Z,12.80
2023-02-24T22:29:02.531Z,13.00
2023-02-24T22:31:33.293Z,12.70
2023-02-24T22:34:01.607Z,12.40
2023-02-24T22:36:36.850Z,13.00
2023-02-24T22:39:08.359Z,12.60
2023-02-24T22:41:38.448Z,12.70
2023-02-24T22:44:07.188Z,13.40
2023-02-24T22:46:38.415Z,13.60
2023-02-24T22:49:07.352Z,12.10
2023-02-24T22:51:36.134Z,13.10
2023-02-24T22:54:06.548Z,13.00
2023-02-24T22:56:35.894Z,11.90
2023-02-24T22:59:05.569Z,12.40
2023-02-24T23:01:36.557Z,13.40
2023-02-24T23:04:07.574Z,12.70
2023-02-24T23:06:37.500Z,12.10
2023-02-24T23:09:06.995Z,15.00
2023-02-24T23:11:44.044Z,15.20
2023-02-24T23:14:14.185Z,14.80
2023-02-24T23:16:45.030Z,14.70
2023-02-24T23:19:17.648Z,16.20
2023-02-24T23:21:49.722Z,14.70
2023-02-24T23:24:19.784Z,16.20
2023-02-24T23:26:54.452Z,15.70
2023-02-24T23:29:24.316Z,15.90
2023-02-24T23:31:53.611Z,15.50
2023-02-24T23:34:23.121Z,15.30
2023-02-24T23:36:52.261Z,14.50
2023-02-24T23:39:24.407Z,13.90
2023-02-24T23:41:56.935Z,14.30
2023-02-24T23:44:26.153Z,13.40
2023-02-24T23:46:55.192Z,14.10
2023-02-24T23:49:23.428Z,14.20
2023-02-24T23:51:52.151Z,13.70
2023-02-24T23:54:20.676Z,13.40
2023-02-24T23:56:50.714Z,13.10
2023-02-24T23:59:18.923Z,12.80
